SV1LH-1 Melissia GR current weather conditions

sailwx.info

Wind at 4 knots gusting 6

Air temperature 30.6° C
Dewpoint 12.9° C

Last reported at 2016-Jul-26 07:54 UTC.
Time now 2016-Jul-26 08:21 UTC

Location: N 38°03' E 023°51'.
View on Google Maps.

See reports from other nearby stations

  
Tides and Currents Weather Stations Pressure Air Temp Water Temp Dewpoint Dewpoint Depression Visibility Wind Speed Wind Dir Waves Ship Positions
date/time (UTC)wind fromknots sea level pressurealtimeterstation pressurevisibilityair tempwater tempwave heightnotes
2016-Jul-26 07:54 30.6
2016-Jul-26 07:49 225 1 gusting 2 30.0
2016-Jul-26 07:44 337 5 gusting 7 30.0
2016-Jul-26 07:39 270 4 gusting 8 30.0
2016-Jul-26 07:34 29.4
2016-Jul-26 07:29 135 4 gusting 6 30.0
2016-Jul-26 07:24 045 4 gusting 7 29.4
2016-Jul-26 07:19 045 2 gusting 5 28.9
2016-Jul-26 07:14 022 8 gusting 14 28.9
2016-Jul-26 07:09 337 7 gusting 13 28.3
2016-Jul-26 07:04 28.9
2016-Jul-26 06:59 022 9 gusting 17 29.4
2016-Jul-26 06:54 337 1 gusting 3 29.4
2016-Jul-26 06:49 28.9
2016-Jul-26 06:44 045 6 gusting 8 28.3
2016-Jul-26 06:39 28.3
2016-Jul-26 06:34 045 6 gusting 12 27.8
2016-Jul-26 06:29 337 7 gusting 14 28.3
2016-Jul-26 06:24 337 6 gusting 10 28.3
2016-Jul-26 06:19 337 6 gusting 11 28.3
2016-Jul-26 06:14 27.8
2016-Jul-26 06:09 27.2
2016-Jul-26 06:04 045 7 gusting 9 27.2
2016-Jul-26 05:59 315 5 gusting 8 27.2
2016-Jul-26 05:54 27.2
2016-Jul-26 05:49 27.2
2016-Jul-26 05:44 315 5 gusting 8 26.7
2016-Jul-26 05:39 26.7
2016-Jul-26 05:34 315 5 gusting 8 26.7
2016-Jul-26 05:29 315 5 gusting 8 26.1
2016-Jul-26 05:24 26.1
2016-Jul-26 05:19 292 7 gusting 16 26.1
2016-Jul-26 05:14 25.6
2016-Jul-26 05:09 337 3 gusting 6 25.6
2016-Jul-26 05:04 315 5 gusting 7 25.6
2016-Jul-26 04:59 067 3 gusting 6 25.0
2016-Jul-26 04:54 045 2 gusting 4 25.0
2016-Jul-26 04:49 022 8 gusting 15 24.4
2016-Jul-26 04:44 337 5 gusting 8 24.4
2016-Jul-26 04:39 022 3 gusting 4 24.4
2016-Jul-26 04:34 23.9
2016-Jul-26 04:29 23.9
2016-Jul-26 04:24 045 1 gusting 4 23.3
2016-Jul-26 04:19 23.3
2016-Jul-26 04:14 315 3 gusting 6 23.3
2016-Jul-26 04:09 315 3 gusting 6 22.8
2016-Jul-26 04:04 337 4 gusting 6 22.8
2016-Jul-26 03:59 315 5 gusting 9 22.8
2016-Jul-26 03:54 337 2 gusting 5 22.8
2016-Jul-26 03:49 022 6 gusting 10 22.8
2016-Jul-26 03:44 22.8
2016-Jul-26 03:39 315 4 gusting 6 22.8
2016-Jul-26 03:34 22.2
2016-Jul-26 03:29 022 2 gusting 5 22.2
2016-Jul-26 03:24 315 2 gusting 5 22.2
2016-Jul-26 03:19 22.2
2016-Jul-26 03:14 337 3 gusting 5 22.2
2016-Jul-26 03:09 337 6 gusting 11 22.2
2016-Jul-26 03:04 270 2 gusting 4 22.2
2016-Jul-26 02:59 202 3 gusting 6 22.2
2016-Jul-26 02:54 315 4 gusting 6 22.2
2016-Jul-26 02:49 22.2
2016-Jul-26 02:44 337 6 gusting 9 22.2
2016-Jul-26 02:39 22.2
2016-Jul-26 02:34 22.2
2016-Jul-26 02:29 22.2
2016-Jul-26 02:24 337 1 gusting 4 22.2
2016-Jul-26 02:19 22.2
2016-Jul-26 02:14 337 3 gusting 6 22.2
2016-Jul-26 02:09 022 3 gusting 6 21.7
2016-Jul-26 02:04 21.7
2016-Jul-26 01:59 022 22.2
2016-Jul-26 01:54 22.2
2016-Jul-26 01:49 315 3 gusting 5 21.7
2016-Jul-26 01:44 022 2 gusting 5 22.2
2016-Jul-26 01:39 292 4 gusting 6 21.7
2016-Jul-26 01:34 292 2 gusting 4 21.7
2016-Jul-26 01:29 337 1 gusting 4 21.7
2016-Jul-26 01:24 315 1 gusting 3 21.7
2016-Jul-26 01:19 247 1 gusting 2 21.7
2016-Jul-26 01:14 315 1 gusting 5 21.7
2016-Jul-26 01:09 247 2 gusting 3 22.2
2016-Jul-26 01:04 315 4 gusting 6 22.2
2016-Jul-26 00:59 292 2 gusting 4 22.2
2016-Jul-26 00:54 292 0 gusting 1 21.7
2016-Jul-26 00:49 315 4 gusting 6 21.7
2016-Jul-26 00:44 337 1 gusting 3 21.7
2016-Jul-26 00:39 315 2 gusting 3 21.7
2016-Jul-26 00:34 315 0 gusting 1 21.7
2016-Jul-26 00:29 21.7
2016-Jul-26 00:24 337 1 gusting 1 21.7
2016-Jul-26 00:19 247 22.2
2016-Jul-26 00:14 270 2 gusting 3 22.2
2016-Jul-26 00:09 292 0 gusting 1 22.2
2016-Jul-26 00:04 315 2 gusting 3 22.2
2016-Jul-25 23:59 022 1 gusting 3 22.8
2016-Jul-25 23:54 22.8
2016-Jul-25 23:49 045 5 gusting 7 22.8
2016-Jul-25 23:44 315 1 gusting 4 22.8
2016-Jul-25 23:39 22.8
2016-Jul-25 23:34 315 4 gusting 5 22.8
2016-Jul-25 23:29 315 4 gusting 6 22.8
2016-Jul-25 23:24 090 1 gusting 3 22.8
2016-Jul-25 23:19 315 4 gusting 6 22.8
2016-Jul-25 23:14 090 2 gusting 5 23.3
2016-Jul-25 23:09 022 1 gusting 2 23.3
2016-Jul-25 23:04 23.3
2016-Jul-25 22:59 315 3 gusting 6 23.3
2016-Jul-25 22:54 315 3 gusting 6 23.3
2016-Jul-25 22:49 045 6 gusting 12 23.3
2016-Jul-25 22:44 292 1 gusting 3 23.3
2016-Jul-25 22:39 315 5 gusting 8 23.3
2016-Jul-25 22:34 337 4 gusting 6 23.3
2016-Jul-25 22:29 23.3
2016-Jul-25 22:24 315 6 gusting 13 23.3
2016-Jul-25 22:19 045 5 gusting 9 23.3
2016-Jul-25 22:14 315 4 gusting 6 23.3
2016-Jul-25 22:09 225 2 gusting 6 23.9
2016-Jul-25 22:04 045 3 gusting 4 23.9
2016-Jul-25 21:59 315 4 gusting 6 23.9
2016-Jul-25 21:54 23.9
2016-Jul-25 21:49 022 6 gusting 9 23.9
2016-Jul-25 21:44 270 4 gusting 8 23.9
2016-Jul-25 21:39 337 4 gusting 6 23.9
2016-Jul-25 21:34 23.9
2016-Jul-25 21:29 337 3 gusting 8 23.9
2016-Jul-25 21:24 315 2 gusting 6 23.9
2016-Jul-25 21:19 23.9
2016-Jul-25 21:14 23.9
2016-Jul-25 21:09 045 4 gusting 6 23.9
2016-Jul-25 21:04 23.9
2016-Jul-25 20:59 337 2 gusting 3 23.9
2016-Jul-25 20:54 24.4
2016-Jul-25 20:49 24.4
2016-Jul-25 20:40 022 4 gusting 5 24.4
2016-Jul-25 20:34 045 4 gusting 6 24.4
2016-Jul-25 20:29 337 3 gusting 6 24.4
2016-Jul-25 20:24 067 5 gusting 7 24.4
2016-Jul-25 20:19 24.4
2016-Jul-25 20:14 24.4
2016-Jul-25 20:09 045 4 gusting 6 24.4
2016-Jul-25 20:04 315 4 gusting 6 24.4
2016-Jul-25 19:59 022 6 gusting 9 24.4
2016-Jul-25 19:54 24.4
2016-Jul-25 19:49 022 6 gusting 9 24.4
2016-Jul-25 19:44 045 6 gusting 12 25.0
2016-Jul-25 19:39 090 6 gusting 8 25.0
2016-Jul-25 19:34 045 5 gusting 7 25.0
2016-Jul-25 19:29 022 6 gusting 10 25.0
2016-Jul-25 19:24 25.0
2016-Jul-25 19:19 25.0
2016-Jul-25 19:14 022 5 gusting 8 25.0
2016-Jul-25 19:09 25.0
2016-Jul-25 19:04 292 4 gusting 6 25.0
2016-Jul-25 18:59 067 2 gusting 5 25.0
2016-Jul-25 18:54 022 3 gusting 6 25.0
2016-Jul-25 18:49 25.0
2016-Jul-25 18:44 25.0
2016-Jul-25 18:39 25.0
2016-Jul-25 18:34 022 4 gusting 6 25.0
2016-Jul-25 18:29 022 9 gusting 13 25.0
2016-Jul-25 18:24 045 4 gusting 7 25.0
2016-Jul-25 18:19 337 4 gusting 8 25.6
2016-Jul-25 18:14 337 3 gusting 7 25.6
2016-Jul-25 18:09 25.6
2016-Jul-25 18:04 337 9 gusting 15 25.6
2016-Jul-25 17:59 25.6
2016-Jul-25 17:54 045 8 gusting 12 25.6
2016-Jul-25 17:49 25.6
2016-Jul-25 17:44 022 4 gusting 6 25.6
2016-Jul-25 17:39 25.6
2016-Jul-25 17:34 022 3 gusting 6 25.6
2016-Jul-25 17:29 26.1
2016-Jul-25 17:24 337 5 gusting 8 26.1
2016-Jul-25 17:19 26.7
2016-Jul-25 17:14 26.7
2016-Jul-25 17:09 26.7
2016-Jul-25 17:04 045 3 gusting 5 27.2
2016-Jul-25 16:59 090 6 gusting 12 27.2
2016-Jul-25 16:54 27.2
2016-Jul-25 16:49 067 5 gusting 8 27.8
2016-Jul-25 16:44 27.8
2016-Jul-25 16:39 045 4 gusting 7 28.3
2016-Jul-25 16:34 045 2 gusting 4 28.3
2016-Jul-25 16:29 045 6 gusting 10 28.3
2016-Jul-25 16:24 28.3
2016-Jul-25 16:19 045 7 gusting 11 28.9
2016-Jul-25 16:14 045 6 gusting 12 29.4
2016-Jul-25 16:09 29.4
2016-Jul-25 16:04 022 2 gusting 4 29.4
2016-Jul-25 15:59 30.0
2016-Jul-25 15:54 045 6 gusting 8 30.0
2016-Jul-25 15:49 315 2 gusting 5 30.6
2016-Jul-25 15:44 090 2 gusting 6 30.6
2016-Jul-25 15:39 022 4 gusting 6 30.0
2016-Jul-25 15:34 045 5 gusting 7 30.6
2016-Jul-25 15:29 022 4 gusting 6 30.6
2016-Jul-25 15:24 315 6 gusting 9 30.6
2016-Jul-25 15:19 022 4 gusting 6 30.6
2016-Jul-25 15:14 045 4 gusting 7 30.6
2016-Jul-25 15:09 315 4 gusting 6 30.6
2016-Jul-25 15:04 30.6
2016-Jul-25 14:59 045 5 gusting 7 30.6
2016-Jul-25 14:54 337 5 gusting 10 30.6
2016-Jul-25 14:49 090 6 gusting 8 30.6
2016-Jul-25 14:44 022 8 gusting 13 30.6
2016-Jul-25 14:39 30.6
2016-Jul-25 14:34 022 7 gusting 10 30.6
2016-Jul-25 14:29 022 10 gusting 13 30.6
2016-Jul-25 14:24 30.6
2016-Jul-25 14:19 090 5 gusting 9 30.6
2016-Jul-25 14:14 045 7 gusting 13 30.6
2016-Jul-25 14:09 022 8 gusting 14 30.6
2016-Jul-25 14:04 022 6 gusting 9 30.6
2016-Jul-25 13:59 022 6 gusting 9 31.1
2016-Jul-25 13:54 30.6
2016-Jul-25 13:49 045 6 gusting 9 30.6
2016-Jul-25 13:44 022 6 gusting 9 30.6
2016-Jul-25 13:39 30.6
2016-Jul-25 13:34 112 7 gusting 13 30.6
2016-Jul-25 13:29 30.6
2016-Jul-25 13:24 090 10 gusting 15 31.1
2016-Jul-25 13:19 045 6 gusting 9 30.6
2016-Jul-25 13:14 090 8 gusting 16 30.6
2016-Jul-25 13:09 315 5 gusting 6 31.1
2016-Jul-25 13:04 045 7 gusting 10 31.1
2016-Jul-25 12:59 022 6 gusting 9 31.1
2016-Jul-25 12:54 30.6
2016-Jul-25 12:49 30.6
2016-Jul-25 12:44 31.1
2016-Jul-25 12:39 022 5 gusting 6 31.1
2016-Jul-25 12:34 202 6 gusting 10 31.1
2016-Jul-25 12:29 022 6 gusting 10 31.7
2016-Jul-25 12:24 045 8 gusting 13 31.7
2016-Jul-25 12:19 315 3 gusting 6 31.7
2016-Jul-25 12:14 31.1
2016-Jul-25 12:09 022 7 gusting 12 31.7
2016-Jul-25 12:04 135 4 gusting 8 31.7
2016-Jul-25 11:59 022 2 gusting 4 31.1
2016-Jul-25 11:54 270 6 gusting 12 31.1
2016-Jul-25 11:49 247 7 gusting 13 31.1
2016-Jul-25 11:44 022 11 gusting 20 31.1
2016-Jul-25 11:39 045 8 gusting 12 30.6
2016-Jul-25 11:34 045 8 gusting 14 30.6
2016-Jul-25 11:29 31.1
2016-Jul-25 11:24 067 7 gusting 13 31.1
2016-Jul-25 11:19 135 6 gusting 9 31.1
2016-Jul-25 11:14 045 7 gusting 13 30.6
2016-Jul-25 11:09 067 7 gusting 10 31.1
2016-Jul-25 11:04 022 5 gusting 7 30.6
2016-Jul-25 10:59 067 7 gusting 13 30.6
2016-Jul-25 10:54 045 8 gusting 18 30.6
2016-Jul-25 10:49 022 5 gusting 7 30.6
2016-Jul-25 10:44 045 4 gusting 6 30.6
2016-Jul-25 10:39 022 10 gusting 16 30.6
2016-Jul-25 10:34 315 8 gusting 15 30.6
2016-Jul-25 10:29 30.6
2016-Jul-25 10:24 135 6 gusting 12 30.6
2016-Jul-25 10:19 022 7 gusting 13 30.0
2016-Jul-25 10:14 337 7 gusting 11 30.0
2016-Jul-25 10:09 045 12 gusting 16 30.0
2016-Jul-25 10:04 067 10 gusting 16 30.0
2016-Jul-25 09:59 045 10 gusting 13 30.0
2016-Jul-25 09:54 045 11 gusting 16 30.0
2016-Jul-25 09:49 045 7 gusting 12 30.0
2016-Jul-25 09:44 045 11 gusting 19 30.0
2016-Jul-25 09:39 30.0
2016-Jul-25 09:34 090 7 gusting 13 30.0
2016-Jul-25 09:29 30.6
2016-Jul-25 09:24 045 7 gusting 14 30.6
2016-Jul-25 09:19 045 5 gusting 10 30.6
2016-Jul-25 09:14 30.6
2016-Jul-25 09:09 022 7 gusting 11 30.6
2016-Jul-25 09:04 090 12 gusting 19 30.6
2016-Jul-25 08:59 225 5 gusting 11 30.0
2016-Jul-25 08:54 045 9 gusting 16 30.0
2016-Jul-25 08:49 30.0
2016-Jul-25 08:44 337 7 gusting 12 30.0
2016-Jul-25 08:39 022 11 gusting 13 30.0
2016-Jul-25 08:34 30.0
2016-Jul-25 08:29 045 8 gusting 14 30.0
2016-Jul-25 08:24 022 10 gusting 20 30.0
2016-Jul-25 08:19 045 10 gusting 13 30.0
2016-Jul-25 08:14 247 6 gusting 13 30.0
2016-Jul-25 08:09 022 6 gusting 11 30.0
2016-Jul-25 08:04 30.0
2016-Jul-25 07:59 045 8 gusting 12 29.4
2016-Jul-25 07:54 022 13 gusting 17 29.4
2016-Jul-25 07:49 022 13 gusting 19 28.9
2016-Jul-25 07:44 045 13 gusting 22 28.9
2016-Jul-25 07:39 045 10 gusting 17 28.9
2016-Jul-25 07:34 29.4
2016-Jul-25 07:29 315 11 gusting 19 29.4
2016-Jul-25 07:24 29.4
2016-Jul-25 07:19 337 11 gusting 16 28.9
2016-Jul-25 07:14 022 9 gusting 13 28.9
2016-Jul-25 07:09 022 6 gusting 13 28.9
2016-Jul-25 07:04 28.9
2016-Jul-25 06:59 28.9
2016-Jul-25 06:54 022 8 gusting 13 28.9
2016-Jul-25 06:49 045 13 gusting 19 28.9
2016-Jul-25 06:44 28.9
2016-Jul-25 06:39 28.3
2016-Jul-25 06:34 28.3
2016-Jul-25 06:29 045 6 gusting 10 28.3
2016-Jul-25 06:24 022 9 gusting 15 28.3
2016-Jul-25 06:19 067 7 gusting 14 28.3
2016-Jul-25 06:14 045 4 gusting 7 28.3
2016-Jul-25 06:09 315 6 gusting 13 28.3
2016-Jul-25 06:04 27.8
2016-Jul-25 05:59 27.8
2016-Jul-25 05:54 022 7 gusting 12 27.8
2016-Jul-25 05:49 045 6 gusting 11 27.8
2016-Jul-25 05:44 045 6 gusting 13 27.2
2016-Jul-25 05:39 27.2
2016-Jul-25 05:34 27.2
2016-Jul-25 05:29 247 6 gusting 12 26.7
2016-Jul-25 05:24 045 6 gusting 12 26.7
2016-Jul-25 05:19 045 10 gusting 19 26.7
2016-Jul-25 05:14 090 7 gusting 13 26.1
2016-Jul-25 05:09 090 12 gusting 19 26.1
2016-Jul-25 05:04 090 6 gusting 13 26.1
2016-Jul-25 04:59 090 5 gusting 10 25.6
2016-Jul-25 04:54 045 4 gusting 6 25.6
2016-Jul-25 04:49 022 8 gusting 12 25.6
2016-Jul-25 04:44 25.6
2016-Jul-25 04:39 25.0
2016-Jul-25 04:34 022 6 gusting 10 25.0
2016-Jul-25 04:29 315 5 gusting 11 25.0
2016-Jul-25 04:24 045 6 gusting 10 25.0
2016-Jul-25 04:19 045 6 gusting 10 25.0
2016-Jul-25 04:14 045 7 gusting 13 24.4
2016-Jul-25 04:09 045 10 gusting 14 24.4
2016-Jul-25 04:04 022 8 gusting 11 24.4
2016-Jul-25 03:59 022 12 gusting 17 24.4
2016-Jul-25 03:54 045 7 gusting 14 24.4
2016-Jul-25 03:49 24.4
2016-Jul-25 03:44 24.4
2016-Jul-25 03:39 022 6 gusting 8 24.4
2016-Jul-25 03:34 135 5 gusting 12 24.4
2016-Jul-25 03:29 24.4
2016-Jul-25 03:24 337 6 gusting 15 24.4
2016-Jul-25 03:19 337 9 gusting 14 24.4
2016-Jul-25 03:14 090 8 gusting 12 24.4
2016-Jul-25 03:09 24.4
2016-Jul-25 03:04 337 11 gusting 16 24.4
2016-Jul-25 02:59 24.4
2016-Jul-25 02:54 24.4
2016-Jul-25 02:49 337 9 gusting 13 24.4
2016-Jul-25 02:44 022 6 gusting 12 24.4
2016-Jul-25 02:39 25.0
2016-Jul-25 02:34 022 7 gusting 13 25.0
2016-Jul-25 02:29 045 3 gusting 6 25.0
2016-Jul-25 02:24 022 6 gusting 11 25.0
2016-Jul-25 02:19 022 3 gusting 5 25.0
2016-Jul-25 02:14 067 3 gusting 6 25.0
2016-Jul-25 02:09 225 4 gusting 7 25.0
2016-Jul-25 02:04 045 4 gusting 7 25.0
2016-Jul-25 01:59 25.0
2016-Jul-25 01:54 045 5 gusting 10 25.0
2016-Jul-25 01:49 247 2 gusting 5 25.0
2016-Jul-25 01:44 25.0
2016-Jul-25 01:39 022 5 gusting 6 25.0
2016-Jul-25 01:34 022 5 gusting 7 25.0
2016-Jul-25 01:29 022 5 gusting 8 25.0
2016-Jul-25 01:24 022 2 gusting 6 25.0
2016-Jul-25 01:19 112 2 gusting 5 25.0
2016-Jul-25 01:14 022 3 gusting 5 25.0
2016-Jul-25 01:09 045 1 gusting 3 25.6
2016-Jul-25 01:04 045 3 gusting 6 25.6
2016-Jul-25 00:59 135 4 gusting 6 25.6
2016-Jul-25 00:54 045 2 gusting 5 25.6
2016-Jul-25 00:49 090 3 gusting 6 25.6
2016-Jul-25 00:44 25.6
2016-Jul-25 00:39 045 2 gusting 5 25.6
2016-Jul-25 00:34 25.6
2016-Jul-25 00:29 337 5 gusting 11 25.6
2016-Jul-25 00:24 045 4 gusting 8 25.6
2016-Jul-25 00:19 25.6
2016-Jul-25 00:14 022 3 gusting 5 25.6
2016-Jul-25 00:09 022 5 gusting 6 25.6
2016-Jul-25 00:04 045 4 gusting 6 25.6
2016-Jul-24 23:59 022 3 gusting 6 25.6
2016-Jul-24 23:54 045 9 gusting 14 26.1
2016-Jul-24 23:49 26.1
2016-Jul-24 23:44 26.1
2016-Jul-24 23:39 25.6
2016-Jul-24 23:34 25.6
2016-Jul-24 23:29 26.1
2016-Jul-24 23:24 022 3 gusting 4 26.1
2016-Jul-24 23:19 270 4 gusting 6 26.1
2016-Jul-24 23:14 26.1
2016-Jul-24 23:09 045 6 gusting 7 26.1
2016-Jul-24 23:04 045 3 gusting 5 26.1
2016-Jul-24 22:59 26.1
2016-Jul-24 22:54 292 5 gusting 10 26.1
2016-Jul-24 22:49 26.1
2016-Jul-24 22:44 337 1 gusting 3 26.1
2016-Jul-24 22:39 022 0 gusting 1 26.1
2016-Jul-24 22:34 022 3 gusting 7 26.1
2016-Jul-24 22:29 045 6 gusting 10 26.1
2016-Jul-24 22:24 045 2 gusting 5 26.7
2016-Jul-24 22:19 26.7
2016-Jul-24 22:14 045 3 gusting 5 26.7
2016-Jul-24 22:09 26.7
2016-Jul-24 22:04 26.7
2016-Jul-24 21:59 26.7
2016-Jul-24 21:54 022 3 gusting 5 26.7
2016-Jul-24 21:49 022 4 gusting 7 26.7
2016-Jul-24 21:44 045 8 gusting 14 26.7
2016-Jul-24 21:39 045 2 gusting 3 26.7
2016-Jul-24 21:34 337 1 gusting 3 26.7
2016-Jul-24 21:29 135 7 gusting 13 26.7
2016-Jul-24 21:24 045 5 gusting 7 26.7
2016-Jul-24 21:19 045 1 gusting 3 26.7
2016-Jul-24 21:14 022 4 gusting 6 26.7
2016-Jul-24 21:09 045 6 gusting 10 26.7
2016-Jul-24 21:04 26.7
2016-Jul-24 20:59 045 1 gusting 5 26.7
2016-Jul-24 20:54 045 2 gusting 5 26.7
2016-Jul-24 20:49 26.7
2016-Jul-24 20:44 337 6 gusting 11 26.7
2016-Jul-24 20:39 045 3 gusting 6 26.7
2016-Jul-24 20:34 045 3 gusting 6 26.7
2016-Jul-24 20:29 045 5 gusting 8 26.7
2016-Jul-24 20:24 022 6 gusting 9 26.7
2016-Jul-24 20:19 045 4 gusting 5 26.7
2016-Jul-24 20:14 067 3 gusting 6 26.7
2016-Jul-24 20:09 26.7
2016-Jul-24 20:04 26.7
2016-Jul-24 19:59 045 4 gusting 6 27.2
2016-Jul-24 19:54 270 4 gusting 6 27.2
2016-Jul-24 19:49 022 7 gusting 12 26.7
2016-Jul-24 19:44 022 6 gusting 9 26.7
2016-Jul-24 19:39 045 6 gusting 10 26.7
2016-Jul-24 19:34 022 4 gusting 10 26.7
2016-Jul-24 19:29 022 6 gusting 11 26.7
2016-Jul-24 19:24 022 2 gusting 3 26.7
2016-Jul-24 19:19 337 5 gusting 7 26.7
2016-Jul-24 19:14 045 3 gusting 5 27.2
2016-Jul-24 19:09 045 4 gusting 10 27.2
2016-Jul-24 19:04 067 3 gusting 6 27.2
2016-Jul-24 18:59 022 4 gusting 6 27.2
2016-Jul-24 18:54 067 6 gusting 9 27.2
2016-Jul-24 18:49 067 6 gusting 8 27.2
2016-Jul-24 18:44 022 8 gusting 11 27.2
2016-Jul-24 18:39 045 4 gusting 6 27.2
2016-Jul-24 18:34 27.2
2016-Jul-24 18:29 022 1 gusting 2 27.2
2016-Jul-24 18:24 27.8
2016-Jul-24 18:19 045 5 gusting 8 27.8
2016-Jul-24 18:14 112 5 gusting 8 27.8
2016-Jul-24 18:09 045 8 gusting 13 27.8
2016-Jul-24 18:04 045 7 gusting 11 27.8
2016-Jul-24 17:59 045 5 gusting 7 27.8
2016-Jul-24 17:54 27.8
2016-Jul-24 17:49 022 4 gusting 8 27.8
2016-Jul-24 17:44 067 4 gusting 6 27.8
2016-Jul-24 17:39 022 7 gusting 11 27.8
2016-Jul-24 17:34 045 6 gusting 9 28.3
2016-Jul-24 17:29 022 2 gusting 4 28.3
2016-Jul-24 17:24 270 5 gusting 10 28.9
2016-Jul-24 17:19 28.9
2016-Jul-24 17:14 045 5 gusting 8 28.9
2016-Jul-24 17:09 045 10 gusting 13 29.4
2016-Jul-24 17:04 045 6 gusting 9 29.4
2016-Jul-24 16:59 045 3 gusting 9 30.0
2016-Jul-24 16:54 045 5 gusting 10 30.0
2016-Jul-24 16:49 022 5 gusting 9 30.6
2016-Jul-24 16:44 30.6
2016-Jul-24 16:39 045 9 gusting 13 31.1
2016-Jul-24 16:34 090 5 gusting 8 31.1
2016-Jul-24 16:29 337 3 gusting 5 31.1
2016-Jul-24 16:24 090 6 gusting 11 31.7
2016-Jul-24 16:19 045 5 gusting 7 31.7
2016-Jul-24 16:14 112 3 gusting 5 31.7
2016-Jul-24 16:09 022 6 gusting 8 32.2
2016-Jul-24 16:04 045 6 gusting 8 32.2
2016-Jul-24 15:59 32.2
2016-Jul-24 15:54 045 6 gusting 12 32.2
2016-Jul-24 15:49 045 3 gusting 5 32.2
2016-Jul-24 15:44 32.8
2016-Jul-24 15:39 022 5 gusting 9 32.8
2016-Jul-24 15:34 045 6 gusting 9 32.8
2016-Jul-24 15:29 067 3 gusting 6 32.8
2016-Jul-24 15:24 33.3
2016-Jul-24 15:19 022 4 gusting 7 33.3
2016-Jul-24 15:14 090 4 gusting 9 33.3
2016-Jul-24 15:09 022 6 gusting 10 33.3
2016-Jul-24 15:04 022 5 gusting 8 32.8
2016-Jul-24 14:59 045 9 gusting 12 33.3
2016-Jul-24 14:54 045 7 gusting 13 33.3
2016-Jul-24 14:49 045 6 gusting 10 33.3
2016-Jul-24 14:44 090 3 gusting 6 33.3
2016-Jul-24 14:39 33.3
2016-Jul-24 14:34 337 5 gusting 6 33.3
2016-Jul-24 14:29 045 10 gusting 15 33.3
2016-Jul-24 14:24 022 6 gusting 9 33.3
2016-Jul-24 14:19 337 5 gusting 8 33.3
2016-Jul-24 14:14 33.9
2016-Jul-24 14:09 045 4 gusting 6 33.9
2016-Jul-24 14:04 045 4 gusting 6 33.3
2016-Jul-24 13:59 067 6 gusting 9 33.3
2016-Jul-24 13:54 337 6 gusting 10 33.9
2016-Jul-24 13:49 33.9
2016-Jul-24 13:44 022 5 gusting 6 33.9
2016-Jul-24 13:39 090 6 gusting 6 33.9
2016-Jul-24 13:34 135 5 gusting 17 33.9
2016-Jul-24 13:29 135 3 gusting 6 33.9
2016-Jul-24 13:24 022 6 gusting 8 33.9
2016-Jul-24 13:19 045 4 gusting 6 33.9
2016-Jul-24 13:14 33.9
2016-Jul-24 13:09 33.9
2016-Jul-24 13:04 270 4 gusting 6 33.9
2016-Jul-24 12:59 045 6 gusting 11 33.9
2016-Jul-24 12:54 022 1 gusting 4 33.9
2016-Jul-24 12:49 067 5 gusting 8 33.3
2016-Jul-24 12:44 33.3
2016-Jul-24 12:39 270 4 gusting 6 33.3
2016-Jul-24 12:34 33.3
2016-Jul-24 12:29 180 5 gusting 9 33.3
2016-Jul-24 12:24 337 6 gusting 9 33.3
2016-Jul-24 12:19 022 6 gusting 8 33.9
2016-Jul-24 12:14 045 6 gusting 11 33.9
2016-Jul-24 12:09 33.9
2016-Jul-24 12:04 022 8 gusting 13 33.3
2016-Jul-24 11:59 090 6 gusting 8 33.9
2016-Jul-24 11:54 33.9
2016-Jul-24 11:49 33.9
2016-Jul-24 11:44 112 5 gusting 9 34.4
2016-Jul-24 11:39 337 5 gusting 8 33.9
2016-Jul-24 11:34 022 3 gusting 5 33.3
2016-Jul-24 11:29 045 6 gusting 13 33.3
2016-Jul-24 11:24 33.9
2016-Jul-24 11:19 022 6 gusting 11 33.9
2016-Jul-24 11:14 33.3
2016-Jul-24 11:09 022 4 gusting 6 33.3
2016-Jul-24 11:04 022 8 gusting 13 33.9
2016-Jul-24 10:59 022 5 gusting 10 33.9
2016-Jul-24 10:54 067 6 gusting 9 33.9
2016-Jul-24 10:49 33.9
2016-Jul-24 10:44 157 6 gusting 8 33.9
2016-Jul-24 10:39 022 2 gusting 6 33.3
2016-Jul-24 10:34 067 8 gusting 11 33.3
2016-Jul-24 10:29 045 9 gusting 12 33.3
2016-Jul-24 10:24 32.8
2016-Jul-24 10:19 33.3
2016-Jul-24 10:14 135 5 gusting 7 33.9
2016-Jul-24 10:09 202 4 gusting 9 33.9
2016-Jul-24 10:04 067 4 gusting 6 33.9
2016-Jul-24 09:59 315 4 gusting 7 33.9
2016-Jul-24 09:54 045 4 gusting 6 33.3
2016-Jul-24 09:49 090 6 gusting 8 33.3
2016-Jul-24 09:44 045 3 gusting 5 33.3
2016-Jul-24 09:39 022 5 gusting 8 33.3
2016-Jul-24 09:34 067 4 gusting 10 33.3
2016-Jul-24 09:29 090 6 gusting 10 33.3
2016-Jul-24 09:24 270 3 gusting 5 32.8
2016-Jul-24 09:19 067 6 gusting 13 32.2
2016-Jul-24 09:14 067 6 gusting 8 32.2
2016-Jul-24 09:09 022 8 gusting 13 32.2
2016-Jul-24 09:04 045 9 gusting 13 32.2
2016-Jul-24 08:59 32.8
2016-Jul-24 08:54 022 4 gusting 7 32.8
2016-Jul-24 08:49 045 5 gusting 7 32.8
2016-Jul-24 08:44 045 3 gusting 7 32.8
2016-Jul-24 08:39 32.2
2016-Jul-24 08:34 045 6 gusting 16 32.8
2016-Jul-24 08:29 32.2
2016-Jul-24 08:24 090 7 gusting 14 32.8
2016-Jul-24 08:19 022 6 gusting 7 32.8
2016-Jul-24 08:14 090 6 gusting 10 32.2
2016-Jul-24 08:09 32.2
2016-Jul-24 08:04 022 7 gusting 11 32.2